Silva, Missouri
Current Conditions -  °F | °C
As of 11:53 PM on Wednesday 17 Dec 2014 (Local Time) from KPOF Reporting Station
Light Rain Light Rain  
Wind Chill:   Ceiling: 6500
Heat Index:   Visibility: 6mi
Dew Point: -1°   Wind: 0mph
Humidity: 89%   Direction: NA
Pressure: 30.29"   Gusts: NA
Location:  37.18°N, 90.46°W
Report Text: KPOF 180553Z AUTO 00000KT 6SM -RA BR OVC065 01/M01 A3029 RMK AO2 SLP262 P0006 60017 T00061011 10033 20006 400501028 50008
Loading
Personal Weather Stations






























Interactive Weather Map New forecast layout! Learn more

10-Day Weather Forecast

Advertisements
Track Severe Weather on mobile